Time;durP1;ratioP1;P1;durP2;ratioP2;P2;SDS_P1;SDS_P2;PMS_P1;PMS_P2;Temp;Humidity;BMP_temperature;BMP_pressure;BME280_temperature;BME280_humidity;BME280_pressure;Samples;Min_cycle;Max_cycle;Signal;HPM_P1;HPM_P2
2022/05/23 00:01:55;;;;;;;2.33;1.17;;;21.70;81.20;;;;;;5039350;28;45354;-71
2022/05/23 00:04:23;;;;;;;1.00;0.90;;;21.70;81.00;;;;;;5040124;28;45395;-70
2022/05/23 00:06:50;;;;;;;1.00;0.90;;;21.70;80.90;;;;;;5043565;28;45300;-71
2022/05/23 00:09:18;;;;;;;1.35;0.80;;;21.70;81.00;;;;;;5040779;28;45344;-71
2022/05/23 00:11:45;;;;;;;1.08;0.80;;;21.70;81.00;;;;;;5041452;28;45835;-71
2022/05/23 00:14:12;;;;;;;1.92;1.02;;;21.70;81.00;;;;;;5035735;28;45464;-71
2022/05/23 00:16:42;;;;;;;1.45;0.85;;;21.70;81.00;;;;;;5043272;28;45328;-71
2022/05/23 00:19:10;;;;;;;0.95;0.80;;;21.70;81.00;;;;;;5038356;28;46934;-71
2022/05/23 00:21:40;;;;;;;1.42;1.00;;;21.60;80.90;;;;;;5035958;28;45327;-71
2022/05/23 00:24:07;;;;;;;0.88;0.80;;;21.70;80.90;;;;;;5044135;28;45346;-72
2022/05/23 00:26:35;;;;;;;1.00;0.80;;;21.70;80.80;;;;;;5055582;28;45222;-71
2022/05/23 00:29:02;;;;;;;1.27;0.90;;;21.70;80.90;;;;;;5047265;28;45398;-71
2022/05/23 00:31:29;;;;;;;1.00;0.70;;;21.70;81.00;;;;;;5054588;28;45287;-71
2022/05/23 00:36:42;;;;;;;2.38;0.90;;;21.60;81.00;;;;;;5052004;28;45243;-71
2022/05/23 00:39:09;;;;;;;1.50;0.95;;;21.60;81.00;;;;;;5054150;28;45491;-71
2022/05/23 00:44:26;;;;;;;0.75;0.68;;;21.60;80.90;;;;;;5036499;28;45419;-71
2022/05/23 00:46:55;;;;;;;0.65;0.65;;;21.60;80.60;;;;;;5043313;28;45390;-71
2022/05/23 00:49:26;;;;;;;1.33;0.90;;;21.70;80.70;;;;;;5043831;28;47072;-71
2022/05/23 00:51:55;;;;;;;0.60;0.60;;;21.60;80.70;;;;;;5051815;28;45315;-71
2022/05/23 00:54:25;;;;;;;0.95;0.80;;;21.60;80.70;;;;;;5051127;28;45205;-71
2022/05/23 00:56:54;;;;;;;1.15;0.85;;;21.60;80.70;;;;;;5050814;28;45328;-71
2022/05/23 00:59:28;;;;;;;1.00;0.80;;;21.70;80.50;;;;;;5039256;28;46207;-71
2022/05/23 01:01:55;;;;;;;1.95;0.80;;;21.70;80.50;;;;;;5048575;28;45958;-71
2022/05/23 01:04:22;;;;;;;1.10;0.90;;;21.70;80.30;;;;;;5043450;28;45252;-71
2022/05/23 01:06:49;;;;;;;1.35;1.00;;;21.60;81.10;;;;;;5049388;28;45208;-71
2022/05/23 01:09:20;;;;;;;0.77;0.70;;;21.70;80.10;;;;;;5048950;28;46276;-71
2022/05/23 01:11:47;;;;;;;1.23;0.70;;;21.60;79.60;;;;;;5051022;28;45354;-71
2022/05/23 01:14:14;;;;;;;1.15;1.00;;;21.70;80.00;;;;;;5052098;28;45338;-71
2022/05/23 01:16:41;;;;;;;1.52;0.80;;;21.70;79.70;;;;;;5055024;28;46499;-71
2022/05/23 01:19:08;;;;;;;1.17;0.93;;;21.70;79.70;;;;;;5054625;28;46223;-71
2022/05/23 01:21:48;;;;;;;1.17;0.88;;;21.70;79.70;;;;;;5045343;28;45479;-71
2022/05/23 01:24:23;;;;;;;1.88;0.90;;;21.70;79.80;;;;;;5055692;28;45164;-71
2022/05/23 01:26:53;;;;;;;1.45;0.90;;;21.60;79.60;;;;;;5051389;28;45447;-71
2022/05/23 01:29:20;;;;;;;0.95;0.80;;;21.70;79.80;;;;;;5047729;28;45515;-71
2022/05/23 01:31:47;;;;;;;1.10;0.90;;;21.70;79.70;;;;;;5041168;28;45335;-71
2022/05/23 01:34:13;;;;;;;1.25;0.70;;;21.70;79.80;;;;;;5026805;28;45169;-71
2022/05/23 01:36:40;;;;;;;0.95;0.80;;;21.70;79.70;;;;;;5048242;28;45339;-71
2022/05/23 01:39:07;;;;;;;1.20;0.77;;;21.70;79.80;;;;;;5056836;28;48446;-71
2022/05/23 01:41:34;;;;;;;0.90;0.73;;;21.60;79.60;;;;;;5058836;28;45279;-71
2022/05/23 01:44:02;;;;;;;0.70;0.57;;;21.60;79.60;;;;;;5048001;28;45373;-71
2022/05/23 01:46:29;;;;;;;0.95;0.70;;;21.60;79.60;;;;;;5059207;28;45130;-71
2022/05/23 01:48:56;;;;;;;1.02;0.60;;;21.60;79.60;;;;;;5048023;28;47692;-71
2022/05/23 01:51:23;;;;;;;1.88;0.88;;;21.60;79.60;;;;;;5047594;28;45193;-71
2022/05/23 01:53:49;;;;;;;1.05;0.80;;;21.60;79.60;;;;;;5055282;28;45310;-71
2022/05/23 01:56:16;;;;;;;1.38;0.75;;;21.70;79.70;;;;;;5048354;28;45210;-71
2022/05/23 02:01:28;;;;;;;0.80;0.75;;;21.60;79.40;;;;;;5045928;28;45303;-70
2022/05/23 02:03:55;;;;;;;1.35;0.95;;;21.70;79.00;;;;;;5048506;28;45341;-70
2022/05/23 02:06:22;;;;;;;0.98;0.80;;;21.60;79.00;;;;;;5045428;28;45362;-71
2022/05/23 02:08:49;;;;;;;1.10;0.80;;;21.70;79.20;;;;;;5055345;28;46204;-70
2022/05/23 02:11:16;;;;;;;0.80;0.80;;;21.60;78.90;;;;;;5054594;28;45306;-71
2022/05/23 02:13:46;;;;;;;1.30;0.82;;;21.70;78.60;;;;;;5043135;28;45410;-71
2022/05/23 02:16:14;;;;;;;1.17;0.70;;;21.70;78.80;;;;;;5055101;28;45784;-72
2022/05/23 02:18:42;;;;;;;0.57;0.55;;;21.70;78.50;;;;;;5055994;28;45326;-72
2022/05/23 02:21:09;;;;;;;0.60;0.60;;;21.70;78.70;;;;;;5049254;28;45342;-72
2022/05/23 02:23:36;;;;;;;1.70;0.80;;;21.70;78.70;;;;;;5043211;28;45162;-71
2022/05/23 02:26:04;;;;;;;0.70;0.63;;;21.70;78.90;;;;;;5054385;28;45338;-71
2022/05/23 02:28:31;;;;;;;0.73;0.57;;;21.70;78.10;;;;;;5048142;28;47331;-72
2022/05/23 02:30:58;;;;;;;1.30;0.70;;;21.70;78.40;;;;;;5042347;28;45271;-72
2022/05/23 02:33:25;;;;;;;0.90;0.65;;;21.70;78.70;;;;;;5048473;28;45348;-72
2022/05/23 02:35:53;;;;;;;2.17;0.77;;;21.70;78.70;;;;;;5044242;28;45266;-71
2022/05/23 02:38:20;;;;;;;0.95;0.63;;;21.60;78.70;;;;;;5047381;28;47137;-72
2022/05/23 02:40:46;;;;;;;1.70;0.93;;;21.60;78.70;;;;;;5057684;28;45257;-72
2022/05/23 02:43:14;;;;;;;1.05;0.60;;;21.60;78.60;;;;;;5053186;28;45589;-72
2022/05/23 02:45:41;;;;;;;0.93;0.68;;;21.60;78.70;;;;;;5048117;28;45473;-71
2022/05/23 02:48:09;;;;;;;0.88;0.70;;;21.60;78.50;;;;;;5054101;28;47585;-70
2022/05/23 02:50:36;;;;;;;0.68;0.60;;;21.60;78.70;;;;;;5048922;28;45180;-70
2022/05/23 02:53:04;;;;;;;0.60;0.60;;;21.60;78.50;;;;;;5057271;28;45259;-70
2022/05/23 02:55:31;;;;;;;1.92;1.10;;;21.60;78.60;;;;;;5047870;28;45316;-70
2022/05/23 02:57:57;;;;;;;1.75;0.85;;;21.60;78.50;;;;;;5058200;28;45328;-71
2022/05/23 03:00:24;;;;;;;1.17;0.77;;;21.60;78.70;;;;;;5054417;28;45355;-70
2022/05/23 03:03:03;;;;;;;0.90;0.70;;;21.60;78.50;;;;;;5053709;28;45263;-70
2022/05/23 03:05:30;;;;;;;1.35;0.77;;;21.60;78.40;;;;;;5040829;28;45140;-70
2022/05/23 03:07:57;;;;;;;0.98;0.70;;;21.60;78.20;;;;;;5056372;28;45197;-70
2022/05/23 03:10:26;;;;;;;1.30;0.80;;;21.60;78.10;;;;;;5038306;28;45975;-71
2022/05/23 03:12:53;;;;;;;1.10;0.55;;;21.60;78.10;;;;;;5049859;28;45565;-71
2022/05/23 03:15:21;;;;;;;1.08;0.80;;;21.60;78.10;;;;;;5043580;28;46229;-70
2022/05/23 03:17:48;;;;;;;0.70;0.70;;;21.60;78.00;;;;;;5052063;28;45291;-71
2022/05/23 03:20:15;;;;;;;0.73;0.60;;;21.60;78.20;;;;;;5058356;28;45120;-71
2022/05/23 03:28:13;;;;;;;1.98;0.60;;;21.60;78.00;;;;;;5055578;28;45556;-70
2022/05/23 03:30:40;;;;;;;1.55;0.75;;;21.60;77.80;;;;;;5052016;28;45153;-72
2022/05/23 03:33:08;;;;;;;0.60;0.60;;;21.60;77.80;;;;;;5053116;28;45250;-70
2022/05/23 03:35:35;;;;;;;0.82;0.70;;;21.60;78.10;;;;;;5055234;28;45301;-71
2022/05/23 03:38:03;;;;;;;1.40;0.80;;;21.60;78.10;;;;;;5049777;28;48201;-71
2022/05/23 03:40:32;;;;;;;0.88;0.75;;;21.60;78.10;;;;;;5057330;28;45229;-70
2022/05/23 03:43:00;;;;;;;1.20;0.90;;;21.60;78.00;;;;;;5053178;28;45227;-70
2022/05/23 03:45:28;;;;;;;1.25;0.98;;;21.60;78.20;;;;;;5054567;28;45778;-71
2022/05/23 03:47:56;;;;;;;0.70;0.68;;;21.60;78.40;;;;;;5041337;28;47829;-71
2022/05/23 03:50:25;;;;;;;0.95;0.80;;;21.60;78.50;;;;;;5042539;28;45383;-71
2022/05/23 03:52:53;;;;;;;1.05;0.68;;;21.60;78.70;;;;;;5054011;28;45314;-71
2022/05/23 03:55:20;;;;;;;1.35;0.90;;;21.60;78.90;;;;;;5053649;28;45651;-71
2022/05/23 03:57:48;;;;;;;1.42;0.77;;;21.50;78.90;;;;;;5048907;28;46292;-71
2022/05/23 04:00:16;;;;;;;0.65;0.60;;;21.50;79.20;;;;;;5052781;28;45653;-70
2022/05/23 04:02:44;;;;;;;1.80;0.90;;;21.50;79.50;;;;;;5045637;28;45334;-70
2022/05/23 04:05:11;;;;;;;0.80;0.70;;;21.60;79.20;;;;;;5049363;28;45456;-71
2022/05/23 04:07:40;;;;;;;0.98;0.70;;;21.60;79.10;;;;;;5045526;28;47231;-71
2022/05/23 04:10:10;;;;;;;1.50;0.90;;;21.50;79.90;;;;;;5051434;28;45335;-71
2022/05/23 04:12:37;;;;;;;1.27;1.00;;;21.60;78.80;;;;;;5049664;28;45204;-71
2022/05/23 04:17:49;;;;;;;0.88;0.65;;;21.50;78.70;;;;;;5249997;22;45067;-71
2022/05/23 04:20:16;;;;;;;0.77;0.65;;;21.60;78.70;;;;;;5141265;27;44638;-71
2022/05/23 04:22:43;;;;;;;0.85;0.60;;;21.60;78.80;;;;;;5131931;27;44737;-70
2022/05/23 04:25:10;;;;;;;0.88;0.80;;;21.60;78.50;;;;;;5137432;27;44670;-71
2022/05/23 04:27:37;;;;;;;1.48;0.73;;;21.60;78.60;;;;;;5143882;27;46383;-71
2022/05/23 04:30:04;;;;;;;1.83;0.70;;;21.60;78.50;;;;;;5136113;27;44830;-71
2022/05/23 04:35:18;;;;;;;1.75;0.70;;;21.60;78.80;;;;;;5136260;27;44770;-71
2022/05/23 04:37:48;;;;;;;0.88;0.80;;;21.50;78.50;;;;;;5132275;27;45518;-71
2022/05/23 04:40:17;;;;;;;1.30;0.70;;;21.50;78.60;;;;;;5125904;27;44771;-71
2022/05/23 04:42:44;;;;;;;0.90;0.80;;;21.50;78.70;;;;;;5139891;27;45184;-70
2022/05/23 04:45:13;;;;;;;1.02;0.80;;;21.50;78.60;;;;;;5141718;27;44785;-71
2022/05/23 04:50:27;;;;;;;1.05;0.73;;;21.50;78.70;;;;;;5126643;27;44775;-71
2022/05/23 04:52:56;;;;;;;0.70;0.70;;;21.50;78.50;;;;;;5135716;27;44747;-72
2022/05/23 04:55:23;;;;;;;1.42;0.70;;;21.50;78.50;;;;;;5136643;27;44843;-71
2022/05/23 04:57:50;;;;;;;0.65;0.60;;;21.50;78.50;;;;;;5136179;27;45484;-70
2022/05/23 05:00:19;;;;;;;0.60;0.60;;;21.50;78.50;;;;;;5143626;27;44871;-70
2022/05/23 05:02:46;;;;;;;1.00;0.77;;;21.50;78.40;;;;;;5124156;27;44835;-71
2022/05/23 05:05:14;;;;;;;1.13;0.68;;;21.50;78.60;;;;;;5137165;27;44841;-71
2022/05/23 05:07:43;;;;;;;1.00;0.80;;;21.50;78.60;;;;;;5131186;27;47072;-70
2022/05/23 05:10:11;;;;;;;1.15;0.95;;;21.60;78.70;;;;;;5135392;27;44625;-71
2022/05/23 05:12:38;;;;;;;1.95;0.90;;;21.60;78.70;;;;;;5125993;27;44788;-70
2022/05/23 05:15:05;;;;;;;1.10;0.80;;;21.60;78.50;;;;;;5119997;27;44869;-71
2022/05/23 05:17:32;;;;;;;0.90;0.80;;;21.50;78.50;;;;;;5125616;27;46361;-71
2022/05/23 05:19:59;;;;;;;0.60;0.60;;;21.60;78.70;;;;;;5132784;27;45120;-71
2022/05/23 05:22:26;;;;;;;1.00;0.80;;;21.60;78.60;;;;;;5138673;27;44792;-70
2022/05/23 05:24:54;;;;;;;0.70;0.70;;;21.60;78.60;;;;;;5124396;27;44975;-71
2022/05/23 05:27:21;;;;;;;1.00;0.70;;;21.60;78.50;;;;;;5120544;27;46604;-71
2022/05/23 05:29:48;;;;;;;0.60;0.60;;;21.60;78.50;;;;;;5133355;27;45032;-71
2022/05/23 05:32:19;;;;;;;1.33;0.82;;;21.50;78.50;;;;;;5129949;27;45088;-70
2022/05/23 05:34:52;;;;;;;0.80;0.70;;;21.60;78.60;;;;;;5132509;27;44797;-70
2022/05/23 05:37:25;;;;;;;1.60;0.95;;;21.50;78.70;;;;;;5124611;27;45203;-71
2022/05/23 05:39:56;;;;;;;1.02;0.82;;;21.50;78.50;;;;;;5127684;27;44788;-71
2022/05/23 05:42:26;;;;;;;0.70;0.70;;;21.50;78.70;;;;;;5123743;27;44642;-70
2022/05/23 05:44:59;;;;;;;0.90;0.80;;;21.50;78.70;;;;;;5130855;27;45360;-71
2022/05/23 06:13:18;;;;;;;2.95;1.35;;;20.80;83.50;;;;;;5143436;27;44891;-81
2022/05/23 06:15:45;;;;;;;2.75;1.10;;;20.50;81.00;;;;;;5129024;27;44690;-79
2022/05/23 06:21:23;;;;;;;1.73;0.90;;;20.80;82.40;;;;;;5131233;27;44654;-81
2022/05/23 06:33:21;;;;;;;1.48;1.02;;;21.30;79.40;;;;;;5010009;28;44708;-79
2022/05/23 06:35:48;;;;;;;1.52;1.00;;;21.10;79.20;;;;;;5123582;27;45316;-80
2022/05/23 07:23:15;;;;;;;22.27;2.28;;;21.90;78.90;;;;;;4953163;28;44694;-82
2022/05/23 07:25:51;;;;;;;6.93;1.60;;;21.30;76.60;;;;;;4993358;28;44766;-82
2022/05/23 08:01:30;;;;;;;3.75;1.25;;;21.90;75.40;;;;;;5171900;27;45325;-87
2022/05/23 08:04:05;;;;;;;6.68;1.40;;;23.40;77.50;;;;;;5174496;27;44692;-89
2022/05/23 08:06:55;;;;;;;5.45;1.33;;;21.70;75.00;;;;;;5174789;27;45599;-86
2022/05/23 08:18:17;;;;;;;5.75;1.30;;;23.00;76.20;;;;;;5126541;27;47285;-89
2022/05/23 08:23:52;;;;;;;5.05;1.40;;;21.60;75.20;;;;;;5168894;27;44659;-77
2022/05/23 08:26:19;;;;;;;4.70;1.50;;;21.90;75.70;;;;;;5157784;27;46116;-66
2022/05/23 08:28:47;;;;;;;6.53;1.17;;;21.50;75.00;;;;;;5166561;27;46368;-66
2022/05/23 08:31:14;;;;;;;3.67;1.42;;;21.50;74.70;;;;;;5168980;27;44714;-66
2022/05/23 08:33:41;;;;;;;3.85;1.25;;;21.50;74.70;;;;;;5167839;27;44652;-66
2022/05/23 08:36:10;;;;;;;4.53;1.38;;;21.60;74.70;;;;;;5161961;27;44791;-66
2022/05/23 08:38:36;;;;;;;4.97;1.55;;;21.60;74.90;;;;;;5165203;27;46301;-66
2022/05/23 08:41:12;;;;;;;3.33;1.33;;;21.60;75.10;;;;;;5163662;27;44688;-66
2022/05/23 08:43:48;;;;;;;2.55;1.00;;;21.70;75.40;;;;;;5169254;27;44877;-67
2022/05/23 08:46:24;;;;;;;2.47;1.10;;;21.70;75.40;;;;;;5171781;27;44785;-67
2022/05/23 08:49:01;;;;;;;1.52;0.93;;;21.70;75.40;;;;;;5171907;27;45184;-66
2022/05/23 08:51:34;;;;;;;2.17;1.00;;;21.70;75.40;;;;;;5172575;27;45141;-67
2022/05/23 08:54:08;;;;;;;2.38;1.25;;;21.70;75.40;;;;;;5166796;27;45222;-66
2022/05/23 08:56:39;;;;;;;2.70;1.00;;;21.70;75.50;;;;;;5165543;27;44828;-66
2022/05/23 08:59:25;;;;;;;3.13;1.33;;;21.70;75.50;;;;;;5167495;27;44985;-67
2022/05/23 09:01:59;;;;;;;2.55;1.00;;;21.70;75.70;;;;;;5169074;27;45071;-67
2022/05/23 09:04:35;;;;;;;2.17;1.20;;;21.70;76.70;;;;;;5161249;27;44812;-67
2022/05/23 09:07:05;;;;;;;4.20;1.08;;;21.70;77.40;;;;;;5171797;27;44832;-67
2022/05/23 09:09:34;;;;;;;2.70;1.17;;;21.70;77.70;;;;;;5170990;27;46108;-67
2022/05/23 09:12:06;;;;;;;2.97;0.90;;;21.80;77.80;;;;;;5154670;27;45063;-67
2022/05/23 09:14:33;;;;;;;2.83;1.02;;;21.80;78.00;;;;;;5182030;27;44969;-67
2022/05/23 09:17:01;;;;;;;1.42;0.93;;;21.70;78.00;;;;;;5184236;27;44716;-67
2022/05/23 09:19:37;;;;;;;1.20;0.93;;;21.70;78.20;;;;;;5173374;27;46762;-67
2022/05/23 09:22:18;;;;;;;1.05;0.90;;;21.70;78.10;;;;;;5171579;27;44613;-68
2022/05/23 09:24:48;;;;;;;1.58;0.85;;;21.80;78.10;;;;;;5173533;27;44683;-68
2022/05/23 09:27:19;;;;;;;1.60;1.00;;;21.70;78.00;;;;;;5174053;27;44753;-68
2022/05/23 09:29:51;;;;;;;1.92;1.10;;;21.80;78.20;;;;;;5171396;27;47102;-67
2022/05/23 09:32:23;;;;;;;2.33;0.90;;;21.80;78.20;;;;;;5169809;27;44762;-67
2022/05/23 09:34:54;;;;;;;1.88;0.80;;;21.70;78.20;;;;;;5166858;27;44936;-67
2022/05/23 09:37:24;;;;;;;1.80;1.00;;;21.80;78.50;;;;;;5174077;27;44926;-67
2022/05/23 09:39:54;;;;;;;1.35;0.90;;;21.70;78.50;;;;;;5171275;27;46407;-67
2022/05/23 09:48:16;;;;;;;3.10;0.82;;;21.80;78.70;;;;;;5160668;27;45299;-67
2022/05/23 09:50:45;;;;;;;2.08;1.13;;;21.80;78.90;;;;;;5171864;27;46573;-67
2022/05/23 09:53:20;;;;;;;2.10;1.00;;;21.80;78.80;;;;;;5173445;27;44696;-67
2022/05/23 09:55:48;;;;;;;1.30;0.80;;;21.70;78.90;;;;;;5171753;27;45084;-67
2022/05/23 09:58:29;;;;;;;1.20;0.98;;;21.80;79.20;;;;;;5173106;27;44752;-67
2022/05/23 10:01:01;;;;;;;1.42;0.80;;;21.70;79.30;;;;;;5169001;27;45518;-68
2022/05/23 10:03:30;;;;;;;2.70;1.05;;;21.70;79.50;;;;;;5173700;27;44557;-67
2022/05/23 10:06:08;;;;;;;1.42;0.82;;;21.70;79.70;;;;;;5170825;27;44672;-67
2022/05/23 10:08:37;;;;;;;1.33;0.80;;;21.70;79.70;;;;;;5171112;27;44709;-67
2022/05/23 10:11:06;;;;;;;1.15;0.90;;;21.70;79.70;;;;;;5173572;27;45380;-67
2022/05/23 10:13:36;;;;;;;1.38;1.00;;;21.70;79.70;;;;;;5171108;27;45026;-67
2022/05/23 10:16:13;;;;;;;1.52;0.77;;;21.70;79.70;;;;;;5181851;27;44928;-67
2022/05/23 10:18:50;;;;;;;1.30;0.95;;;21.70;79.70;;;;;;5183187;27;45064;-67
2022/05/23 10:21:26;;;;;;;1.38;0.90;;;21.70;79.80;;;;;;5172446;27;45482;-67
2022/05/23 10:24:03;;;;;;;1.23;0.90;;;21.70;79.70;;;;;;5172933;27;44756;-67
2022/05/23 10:26:33;;;;;;;3.60;1.10;;;21.70;79.70;;;;;;5172559;27;44571;-67
2022/05/23 10:29:08;;;;;;;2.10;0.90;;;21.70;79.70;;;;;;5172347;27;45001;-67
2022/05/23 10:31:41;;;;;;;1.40;0.93;;;21.70;79.70;;;;;;5170745;27;45084;-67
2022/05/23 10:34:28;;;;;;;1.55;0.90;;;21.80;79.80;;;;;;5170218;27;44640;-67
2022/05/23 10:36:57;;;;;;;1.45;0.82;;;21.70;79.80;;;;;;5173215;27;45031;-67
2022/05/23 10:42:19;;;;;;;1.20;0.90;;;21.80;79.90;;;;;;5170276;27;45083;-67
2022/05/23 10:44:59;;;;;;;1.40;0.88;;;21.80;80.30;;;;;;5172917;27;44564;-67
2022/05/23 10:47:38;;;;;;;1.15;0.80;;;21.70;80.20;;;;;;5171795;27;44629;-67
2022/05/23 10:50:19;;;;;;;1.15;0.90;;;21.80;80.40;;;;;;5169169;27;45358;-67
2022/05/23 10:52:54;;;;;;;1.02;0.75;;;21.80;80.60;;;;;;5153446;27;46743;-67
2022/05/23 10:55:30;;;;;;;1.35;0.88;;;21.70;80.50;;;;;;5164278;27;46001;-67
2022/05/23 10:58:05;;;;;;;1.70;0.60;;;21.70;80.70;;;;;;5166513;27;44688;-67
2022/05/23 11:00:39;;;;;;;1.60;0.90;;;21.80;80.80;;;;;;5163116;27;45421;-67
2022/05/23 11:03:12;;;;;;;2.13;0.93;;;21.80;81.00;;;;;;5167570;27;45266;-67
2022/05/23 11:05:57;;;;;;;1.00;0.90;;;21.70;80.90;;;;;;5159166;27;44594;-67
2022/05/23 11:08:40;;;;;;;0.95;0.90;;;21.70;81.00;;;;;;5164479;27;44993;-67
2022/05/23 11:11:14;;;;;;;0.85;0.77;;;21.70;81.10;;;;;;5167959;27;45105;-67
2022/05/23 11:13:54;;;;;;;1.17;0.88;;;21.70;81.10;;;;;;5166997;27;46408;-67
2022/05/23 11:16:30;;;;;;;1.85;0.95;;;21.80;81.40;;;;;;5168371;27;44693;-67
2022/05/23 11:19:15;;;;;;;1.92;0.90;;;21.70;81.40;;;;;;5168610;27;44665;-67
2022/05/23 11:21:54;;;;;;;1.55;0.80;;;21.70;81.30;;;;;;5169420;27;44973;-67
2022/05/23 11:24:24;;;;;;;1.20;0.73;;;21.70;81.20;;;;;;5163408;27;45663;-67
2022/05/23 11:26:55;;;;;;;1.73;1.00;;;21.80;81.30;;;;;;5170942;27;44745;-67
2022/05/23 11:35:01;;;;;;;2.35;1.00;;;21.70;81.30;;;;;;5126255;27;45235;-67
2022/05/23 11:37:45;;;;;;;1.08;0.80;;;21.70;81.40;;;;;;5162799;27;44741;-67
2022/05/23 11:40:14;;;;;;;1.30;1.00;;;21.80;81.60;;;;;;5167470;27;44708;-67
2022/05/23 11:42:43;;;;;;;1.15;0.80;;;21.70;81.50;;;;;;5168775;27;45163;-67
2022/05/23 11:48:56;;;;;;;1.10;0.80;;;21.80;81.70;;;;;;5164771;27;45224;-67
2022/05/23 11:51:38;;;;;;;1.48;0.95;;;21.80;81.80;;;;;;5082152;28;44912;-67
2022/05/23 11:54:10;;;;;;;1.50;1.10;;;21.70;81.90;;;;;;5080187;28;44854;-67
2022/05/23 11:56:49;;;;;;;1.83;0.80;;;21.80;82.10;;;;;;5131325;27;45233;-66
2022/05/23 11:59:53;;;;;;;1.88;0.88;;;21.70;82.10;;;;;;5153115;27;45012;-67
2022/05/23 12:02:25;;;;;;;1.35;0.70;;;21.70;82.30;;;;;;5140251;27;44728;-67
2022/05/23 12:05:14;;;;;;;1.20;0.88;;;21.70;82.40;;;;;;5170499;27;45064;-67
2022/05/23 12:08:05;;;;;;;1.98;1.00;;;21.80;82.70;;;;;;5160779;27;47375;-67
2022/05/23 12:10:55;;;;;;;1.52;0.90;;;21.70;82.70;;;;;;5164425;27;44964;-67
2022/05/23 12:13:52;;;;;;;0.80;0.73;;;21.80;82.90;;;;;;5174320;27;44684;-67
2022/05/23 12:16:39;;;;;;;1.08;0.75;;;21.70;82.90;;;;;;5173054;27;45099;-67
2022/05/23 12:19:28;;;;;;;1.38;0.82;;;21.80;83.10;;;;;;5153493;27;45345;-67
2022/05/23 12:22:14;;;;;;;1.20;0.80;;;21.80;83.10;;;;;;5169120;27;44891;-67
2022/05/23 12:25:00;;;;;;;1.25;0.80;;;21.80;83.00;;;;;;5175105;27;44660;-67
2022/05/23 12:27:32;;;;;;;1.92;0.80;;;21.80;82.90;;;;;;5157021;27;45063;-67
2022/05/23 12:30:31;;;;;;;0.98;0.98;;;21.80;82.90;;;;;;5166992;27;44986;-67
2022/05/23 12:33:08;;;;;;;1.27;0.85;;;21.70;83.00;;;;;;5167274;27;45180;-67
2022/05/23 12:35:53;;;;;;;1.25;1.10;;;21.80;83.20;;;;;;5164854;27;44748;-67
2022/05/23 12:38:31;;;;;;;1.63;1.00;;;21.80;83.10;;;;;;5164340;27;44966;-67
2022/05/23 12:41:10;;;;;;;2.80;0.90;;;21.80;83.10;;;;;;5165543;27;46570;-67
2022/05/23 12:43:49;;;;;;;1.67;1.00;;;21.80;83.20;;;;;;5166049;27;45305;-67
2022/05/23 12:46:29;;;;;;;1.00;0.80;;;21.80;83.40;;;;;;5168597;27;45024;-67
2022/05/23 12:49:17;;;;;;;0.70;0.70;;;21.80;83.60;;;;;;5164458;27;45555;-67
2022/05/23 12:51:51;;;;;;;1.42;1.00;;;21.80;83.70;;;;;;5167990;27;45264;-67
2022/05/23 12:54:40;;;;;;;0.98;0.80;;;21.80;83.80;;;;;;5168509;27;44936;-67
2022/05/23 12:57:42;;;;;;;3.55;0.88;;;21.80;84.00;;;;;;5168693;27;45983;-67
2022/05/23 13:00:14;;;;;;;1.70;1.00;;;21.80;84.30;;;;;;5155896;27;45118;-67
2022/05/23 13:02:45;;;;;;;1.38;1.15;;;21.80;84.40;;;;;;5165850;27;48061;-67
2022/05/23 13:05:17;;;;;;;2.70;1.02;;;21.80;84.80;;;;;;5159685;27;45536;-67
2022/05/23 13:07:52;;;;;;;2.95;1.20;;;21.80;84.90;;;;;;5165100;27;46053;-67
2022/05/23 13:10:23;;;;;;;3.00;1.10;;;21.80;86.20;;;;;;5168178;27;44829;-67
2022/05/23 13:12:56;;;;;;;2.10;1.27;;;21.80;85.30;;;;;;5165660;27;45664;-67
2022/05/23 13:15:28;;;;;;;1.52;1.02;;;21.80;85.60;;;;;;5169547;27;44975;-67
2022/05/23 13:22:05;;;;;;;1.15;1.05;;;21.80;85.50;;;;;;5169948;27;45282;-67
2022/05/23 13:23:29;;;;;;;1.42;0.90;;;21.80;85.60;;;;;;5169608;27;44990;-67
2022/05/23 13:25:56;;;;;;;1.25;1.02;;;21.70;85.70;;;;;;5171563;27;44769;-67
2022/05/23 13:28:23;;;;;;;1.25;1.00;;;21.80;86.00;;;;;;5170268;27;44762;-67
2022/05/23 13:30:55;;;;;;;1.92;1.13;;;21.80;86.40;;;;;;5171763;27;44829;-67
2022/05/23 13:33:26;;;;;;;1.70;1.10;;;21.80;86.60;;;;;;5169497;27;45464;-67
2022/05/23 13:35:57;;;;;;;2.45;1.10;;;21.80;86.60;;;;;;5170271;27;45152;-67
2022/05/23 13:38:28;;;;;;;3.35;1.20;;;21.70;86.70;;;;;;5168643;27;45152;-67
2022/05/23 13:40:57;;;;;;;2.28;1.27;;;21.80;86.60;;;;;;5170962;27;44729;-67
2022/05/23 13:43:25;;;;;;;1.73;1.20;;;21.80;87.00;;;;;;5169439;27;46267;-67
2022/05/23 13:46:12;;;;;;;1.13;1.00;;;21.80;87.20;;;;;;5171408;27;44708;-67
2022/05/23 13:48:44;;;;;;;3.17;1.48;;;21.80;87.80;;;;;;5166534;27;44771;-67
2022/05/23 13:51:15;;;;;;;2.33;1.30;;;21.80;87.50;;;;;;5170007;27;44746;-67
2022/05/23 13:53:47;;;;;;;2.42;1.20;;;21.80;88.10;;;;;;5168548;27;46999;-67
2022/05/23 13:56:14;;;;;;;3.17;1.20;;;21.80;88.60;;;;;;5169392;27;45116;-67
2022/05/23 13:58:46;;;;;;;2.13;1.48;;;21.80;89.70;;;;;;5162666;27;44738;-67
2022/05/23 14:01:33;;;;;;;1.40;1.00;;;21.80;90.00;;;;;;5168924;27;44812;-67
2022/05/23 14:04:03;;;;;;;1.52;1.30;;;21.70;90.20;;;;;;5169063;27;46617;-67
2022/05/23 14:06:35;;;;;;;1.70;1.10;;;21.70;90.60;;;;;;5167991;27;44876;-67
2022/05/23 14:09:05;;;;;;;2.33;1.30;;;21.70;90.60;;;;;;5169254;27;44718;-67
2022/05/23 14:11:37;;;;;;;2.60;1.40;;;21.70;91.00;;;;;;5164910;27;44719;-67
2022/05/23 14:14:17;;;;;;;2.03;1.20;;;21.70;91.30;;;;;;5169511;27;45483;-67
2022/05/23 14:16:56;;;;;;;3.58;1.52;;;21.70;91.40;;;;;;5163985;27;44958;-67
2022/05/23 14:19:25;;;;;;;2.15;1.10;;;21.70;91.50;;;;;;5170184;27;45104;-67
2022/05/23 14:22:04;;;;;;;2.42;1.20;;;21.70;91.60;;;;;;5168653;27;44887;-67
2022/05/23 14:24:37;;;;;;;2.85;0.93;;;21.70;91.70;;;;;;5164373;27;46569;-67
2022/05/23 14:27:13;;;;;;;3.38;1.48;;;21.70;91.60;;;;;;5165741;27;44689;-67
2022/05/23 14:29:40;;;;;;;2.75;1.30;;;21.70;91.70;;;;;;5163791;27;44753;-67
2022/05/23 14:32:14;;;;;;;2.72;1.10;;;21.70;91.60;;;;;;5168506;27;44708;-67
2022/05/23 14:34:43;;;;;;;3.65;1.40;;;21.70;91.60;;;;;;5169013;27;47016;-67
2022/05/23 14:37:11;;;;;;;2.58;1.40;;;21.80;91.50;;;;;;5165844;27;44712;-67
2022/05/23 14:39:39;;;;;;;2.17;1.30;;;21.80;91.60;;;;;;5165008;27;44724;-67
2022/05/23 14:42:21;;;;;;;1.95;1.42;;;21.70;91.40;;;;;;5169056;27;44818;-67
2022/05/23 14:45:05;;;;;;;1.20;1.10;;;21.70;91.30;;;;;;5170640;27;45300;-67
2022/05/23 14:47:33;;;;;;;2.13;1.20;;;21.80;91.30;;;;;;5173018;27;44575;-67
2022/05/23 14:50:05;;;;;;;2.35;0.93;;;21.80;91.20;;;;;;5171842;27;45199;-67
2022/05/23 14:52:37;;;;;;;1.38;1.20;;;21.80;91.30;;;;;;5173089;27;44645;-67
2022/05/23 14:55:18;;;;;;;2.15;1.20;;;21.80;91.20;;;;;;5171370;27;45473;-67
2022/05/23 15:00:41;;;;;;;1.73;1.00;;;21.80;91.30;;;;;;5169636;27;45145;-67
2022/05/23 15:03:14;;;;;;;1.92;1.20;;;21.80;91.30;;;;;;5171707;27;44816;-67
2022/05/23 15:05:41;;;;;;;2.05;1.10;;;21.80;91.20;;;;;;5171165;27;47072;-67
2022/05/23 15:08:11;;;;;;;1.70;1.17;;;21.70;91.30;;;;;;5172362;27;45249;-67
2022/05/23 15:10:39;;;;;;;1.30;1.10;;;21.70;91.40;;;;;;5172559;27;44693;-67
2022/05/23 15:13:07;;;;;;;1.90;1.10;;;21.80;91.40;;;;;;5159494;27;44868;-67
2022/05/23 15:15:37;;;;;;;1.65;1.10;;;21.70;91.40;;;;;;5168599;27;45026;-67
2022/05/23 15:18:04;;;;;;;1.75;0.95;;;21.80;91.50;;;;;;5164467;27;44670;-67
2022/05/23 15:20:32;;;;;;;1.52;1.10;;;21.70;91.40;;;;;;5173781;27;45012;-67
2022/05/23 15:22:59;;;;;;;1.48;1.02;;;21.70;91.40;;;;;;5172092;27;44783;-67
2022/05/23 15:25:26;;;;;;;1.77;1.10;;;21.70;91.50;;;;;;5175410;27;47534;-67
2022/05/23 15:27:54;;;;;;;1.08;0.98;;;21.70;91.40;;;;;;5175625;27;44694;-67
2022/05/23 15:30:25;;;;;;;2.13;1.20;;;21.70;91.40;;;;;;5165606;27;45223;-66
2022/05/23 15:32:53;;;;;;;1.63;1.33;;;21.70;91.60;;;;;;5156576;27;44986;-66
2022/05/23 15:35:21;;;;;;;2.20;1.10;;;21.70;91.40;;;;;;5160438;27;45047;-67
2022/05/23 15:37:49;;;;;;;2.08;1.40;;;21.70;91.10;;;;;;5166658;27;44670;-66
2022/05/23 15:40:17;;;;;;;3.38;1.45;;;21.70;91.20;;;;;;5166435;27;45364;-67
2022/05/23 15:42:46;;;;;;;4.07;2.67;;;21.70;90.80;;;;;;5166061;27;45079;-66
2022/05/23 15:45:16;;;;;;;3.75;2.38;;;21.70;90.80;;;;;;5176920;27;45338;-66
2022/05/23 15:47:43;;;;;;;5.03;2.80;;;21.80;91.20;;;;;;5174611;27;44729;-66
2022/05/23 15:50:12;;;;;;;5.53;2.72;;;21.70;91.60;;;;;;5166976;27;44657;-66
2022/05/23 15:52:39;;;;;;;3.83;2.78;;;21.70;91.90;;;;;;5169010;27;44912;-66
2022/05/23 15:55:08;;;;;;;3.50;2.17;;;21.70;91.90;;;;;;5172919;27;46715;-66
2022/05/23 15:57:38;;;;;;;3.05;2.38;;;21.80;92.20;;;;;;5170238;27;44755;-66
2022/05/23 16:00:09;;;;;;;6.63;2.60;;;21.70;92.50;;;;;;5173601;27;44625;-67
2022/05/23 16:02:37;;;;;;;4.20;2.28;;;21.80;92.80;;;;;;5177056;27;44955;-66
2022/05/23 16:05:04;;;;;;;4.75;2.15;;;21.70;93.10;;;;;;5172011;27;44989;-66